Terminal Aerodrome Forecast
Issued by NWS

Home | Current Version | Previous Version | Text Only | Print | Product List | Glossary On
Versions: 1 2 3 4 5 6 7 8 9 10 11 12 13 14 15
455
FTUS42 KMLB 242337
TAFLEE
TAF
KLEE 242337Z 2500/2524 VRB05KT P6SM VCTS SCT040CB BKN100
     FM250100 17005KT P6SM FEW020 SCT100 SCT250
     FM251400 18005KT P6SM SCT025 SCT080
     FM251800 22007KT P6SM VCTS SCT040CB BKN250=

USA.gov is the U.S. government's official web portal to all federal, state and local government web resources and services.